sensor_id;sensor_type;location;lat;lon;timestamp;P1;durP1;ratioP1;P2;durP2;ratioP2
17259;SDS011;8746;49.230;9.220;2024-01-30T00:01:01;17.63;;;13.97;;
17259;SDS011;8746;49.230;9.220;2024-01-30T00:03:26;18.87;;;14.17;;
17259;SDS011;8746;49.230;9.220;2024-01-30T00:05:51;20.27;;;13.47;;
17259;SDS011;8746;49.230;9.220;2024-01-30T00:08:17;18.83;;;14.57;;
17259;SDS011;8746;49.230;9.220;2024-01-30T00:10:42;18.53;;;13.47;;
17259;SDS011;8746;49.230;9.220;2024-01-30T00:13:08;22.20;;;13.37;;
17259;SDS011;8746;49.230;9.220;2024-01-30T00:15:33;17.43;;;13.70;;
17259;SDS011;8746;49.230;9.220;2024-01-30T00:17:59;17.70;;;12.97;;
17259;SDS011;8746;49.230;9.220;2024-01-30T00:20:25;20.13;;;14.10;;
17259;SDS011;8746;49.230;9.220;2024-01-30T00:22:50;16.97;;;12.70;;
17259;SDS011;8746;49.230;9.220;2024-01-30T00:25:15;18.10;;;13.20;;
17259;SDS011;8746;49.230;9.220;2024-01-30T00:27:41;17.57;;;13.37;;
17259;SDS011;8746;49.230;9.220;2024-01-30T00:30:06;18.50;;;13.33;;
17259;SDS011;8746;49.230;9.220;2024-01-30T00:32:32;17.63;;;13.07;;
17259;SDS011;8746;49.230;9.220;2024-01-30T00:34:57;18.13;;;13.07;;
17259;SDS011;8746;49.230;9.220;2024-01-30T00:37:23;18.47;;;13.33;;
17259;SDS011;8746;49.230;9.220;2024-01-30T00:39:48;16.27;;;12.23;;
17259;SDS011;8746;49.230;9.220;2024-01-30T00:42:14;16.97;;;12.87;;
17259;SDS011;8746;49.230;9.220;2024-01-30T00:44:40;17.33;;;12.80;;
17259;SDS011;8746;49.230;9.220;2024-01-30T00:47:05;18.73;;;12.47;;
17259;SDS011;8746;49.230;9.220;2024-01-30T00:49:31;17.87;;;13.23;;
17259;SDS011;8746;49.230;9.220;2024-01-30T00:51:56;17.33;;;12.93;;
17259;SDS011;8746;49.230;9.220;2024-01-30T00:54:21;19.47;;;12.90;;
17259;SDS011;8746;49.230;9.220;2024-01-30T00:56:47;16.70;;;12.63;;
17259;SDS011;8746;49.230;9.220;2024-01-30T00:59:12;19.83;;;13.10;;
17259;SDS011;8746;49.230;9.220;2024-01-30T01:01:37;17.73;;;12.60;;
17259;SDS011;8746;49.230;9.220;2024-01-30T01:04:03;19.90;;;13.67;;
17259;SDS011;8746;49.230;9.220;2024-01-30T01:06:28;18.17;;;12.97;;
17259;SDS011;8746;49.230;9.220;2024-01-30T01:08:53;16.73;;;12.73;;
17259;SDS011;8746;49.230;9.220;2024-01-30T01:11:19;16.00;;;12.63;;
17259;SDS011;8746;49.230;9.220;2024-01-30T01:13:44;17.47;;;12.67;;
17259;SDS011;8746;49.230;9.220;2024-01-30T01:16:09;18.30;;;13.10;;
17259;SDS011;8746;49.230;9.220;2024-01-30T01:18:35;20.67;;;13.13;;
17259;SDS011;8746;49.230;9.220;2024-01-30T01:21:00;14.50;;;12.30;;
17259;SDS011;8746;49.230;9.220;2024-01-30T01:23:26;16.73;;;12.87;;
17259;SDS011;8746;49.230;9.220;2024-01-30T01:25:51;15.60;;;12.40;;
17259;SDS011;8746;49.230;9.220;2024-01-30T01:28:16;17.03;;;12.63;;
17259;SDS011;8746;49.230;9.220;2024-01-30T01:30:42;19.37;;;12.07;;
17259;SDS011;8746;49.230;9.220;2024-01-30T01:33:07;14.80;;;11.23;;
17259;SDS011;8746;49.230;9.220;2024-01-30T01:35:34;13.93;;;11.70;;
17259;SDS011;8746;49.230;9.220;2024-01-30T01:38:00;16.00;;;12.17;;
17259;SDS011;8746;49.230;9.220;2024-01-30T01:40:26;18.13;;;12.00;;
17259;SDS011;8746;49.230;9.220;2024-01-30T01:42:53;15.00;;;12.33;;
17259;SDS011;8746;49.230;9.220;2024-01-30T01:45:20;14.63;;;11.13;;
17259;SDS011;8746;49.230;9.220;2024-01-30T01:47:47;12.23;;;10.87;;
17259;SDS011;8746;49.230;9.220;2024-01-30T01:50:15;14.67;;;11.20;;
17259;SDS011;8746;49.230;9.220;2024-01-30T01:52:44;13.70;;;10.57;;
17259;SDS011;8746;49.230;9.220;2024-01-30T01:55:12;13.60;;;10.97;;
17259;SDS011;8746;49.230;9.220;2024-01-30T01:57:38;15.40;;;10.87;;
17259;SDS011;8746;49.230;9.220;2024-01-30T02:00:04;14.50;;;10.67;;
17259;SDS011;8746;49.230;9.220;2024-01-30T02:02:30;13.80;;;11.23;;
17259;SDS011;8746;49.230;9.220;2024-01-30T02:05:00;14.80;;;11.60;;
17259;SDS011;8746;49.230;9.220;2024-01-30T02:07:25;13.47;;;10.67;;
17259;SDS011;8746;49.230;9.220;2024-01-30T02:09:52;15.70;;;11.57;;
17259;SDS011;8746;49.230;9.220;2024-01-30T02:12:18;13.43;;;10.90;;
17259;SDS011;8746;49.230;9.220;2024-01-30T02:14:47;16.80;;;10.87;;
17259;SDS011;8746;49.230;9.220;2024-01-30T02:17:13;13.60;;;10.90;;
17259;SDS011;8746;49.230;9.220;2024-01-30T02:19:39;13.23;;;11.03;;
17259;SDS011;8746;49.230;9.220;2024-01-30T02:22:05;15.53;;;10.80;;
17259;SDS011;8746;49.230;9.220;2024-01-30T02:24:31;13.00;;;11.13;;
17259;SDS011;8746;49.230;9.220;2024-01-30T02:26:56;13.23;;;10.23;;
17259;SDS011;8746;49.230;9.220;2024-01-30T02:29:22;17.27;;;10.50;;
17259;SDS011;8746;49.230;9.220;2024-01-30T02:31:47;13.87;;;10.40;;
17259;SDS011;8746;49.230;9.220;2024-01-30T02:34:13;13.83;;;10.73;;
17259;SDS011;8746;49.230;9.220;2024-01-30T02:36:38;14.53;;;10.17;;
17259;SDS011;8746;49.230;9.220;2024-01-30T02:39:07;12.40;;;10.13;;
17259;SDS011;8746;49.230;9.220;2024-01-30T02:41:33;13.10;;;9.97;;
17259;SDS011;8746;49.230;9.220;2024-01-30T02:43:58;13.13;;;9.93;;
17259;SDS011;8746;49.230;9.220;2024-01-30T02:46:23;12.77;;;10.20;;
17259;SDS011;8746;49.230;9.220;2024-01-30T02:48:49;11.67;;;10.27;;
17259;SDS011;8746;49.230;9.220;2024-01-30T02:51:14;13.17;;;10.70;;
17259;SDS011;8746;49.230;9.220;2024-01-30T02:53:39;15.47;;;10.47;;
17259;SDS011;8746;49.230;9.220;2024-01-30T02:56:05;13.37;;;10.40;;
17259;SDS011;8746;49.230;9.220;2024-01-30T02:58:31;14.90;;;10.33;;
17259;SDS011;8746;49.230;9.220;2024-01-30T03:00:56;13.20;;;10.93;;
17259;SDS011;8746;49.230;9.220;2024-01-30T03:03:21;14.90;;;10.63;;
17259;SDS011;8746;49.230;9.220;2024-01-30T03:05:47;13.87;;;10.30;;
17259;SDS011;8746;49.230;9.220;2024-01-30T03:08:13;12.90;;;9.87;;
17259;SDS011;8746;49.230;9.220;2024-01-30T03:10:38;16.40;;;11.30;;
17259;SDS011;8746;49.230;9.220;2024-01-30T03:13:03;12.80;;;10.43;;
17259;SDS011;8746;49.230;9.220;2024-01-30T03:15:28;13.83;;;10.13;;
17259;SDS011;8746;49.230;9.220;2024-01-30T03:17:54;14.83;;;10.53;;
17259;SDS011;8746;49.230;9.220;2024-01-30T03:20:19;11.87;;;9.47;;
17259;SDS011;8746;49.230;9.220;2024-01-30T03:22:44;14.30;;;9.40;;
17259;SDS011;8746;49.230;9.220;2024-01-30T03:25:10;12.77;;;9.07;;
17259;SDS011;8746;49.230;9.220;2024-01-30T03:27:35;15.67;;;10.07;;
17259;SDS011;8746;49.230;9.220;2024-01-30T03:30:00;17.63;;;9.80;;
17259;SDS011;8746;49.230;9.220;2024-01-30T03:32:26;12.43;;;9.70;;
17259;SDS011;8746;49.230;9.220;2024-01-30T03:34:51;13.87;;;9.23;;
17259;SDS011;8746;49.230;9.220;2024-01-30T03:37:16;13.67;;;10.00;;
17259;SDS011;8746;49.230;9.220;2024-01-30T03:39:42;15.30;;;9.63;;
17259;SDS011;8746;49.230;9.220;2024-01-30T03:42:07;16.97;;;9.33;;
17259;SDS011;8746;49.230;9.220;2024-01-30T03:44:32;11.47;;;9.27;;
17259;SDS011;8746;49.230;9.220;2024-01-30T03:46:58;13.43;;;9.47;;
17259;SDS011;8746;49.230;9.220;2024-01-30T03:49:23;12.83;;;9.50;;
17259;SDS011;8746;49.230;9.220;2024-01-30T03:51:49;14.03;;;9.63;;
17259;SDS011;8746;49.230;9.220;2024-01-30T03:54:14;12.73;;;9.70;;
17259;SDS011;8746;49.230;9.220;2024-01-30T03:56:40;14.07;;;9.53;;
17259;SDS011;8746;49.230;9.220;2024-01-30T03:59:05;11.60;;;9.40;;
17259;SDS011;8746;49.230;9.220;2024-01-30T04:01:30;13.03;;;9.70;;
17259;SDS011;8746;49.230;9.220;2024-01-30T04:03:55;11.60;;;9.30;;
17259;SDS011;8746;49.230;9.220;2024-01-30T04:06:21;12.83;;;9.63;;
17259;SDS011;8746;49.230;9.220;2024-01-30T04:08:46;12.97;;;9.97;;
17259;SDS011;8746;49.230;9.220;2024-01-30T04:11:12;12.87;;;9.70;;
17259;SDS011;8746;49.230;9.220;2024-01-30T04:13:37;13.33;;;9.93;;
17259;SDS011;8746;49.230;9.220;2024-01-30T04:16:02;13.00;;;9.77;;
17259;SDS011;8746;49.230;9.220;2024-01-30T04:18:28;13.97;;;9.67;;
17259;SDS011;8746;49.230;9.220;2024-01-30T04:20:54;16.07;;;8.97;;
17259;SDS011;8746;49.230;9.220;2024-01-30T04:23:20;11.10;;;9.10;;
17259;SDS011;8746;49.230;9.220;2024-01-30T04:25:45;13.90;;;9.97;;
17259;SDS011;8746;49.230;9.220;2024-01-30T04:28:10;16.83;;;9.77;;
17259;SDS011;8746;49.230;9.220;2024-01-30T04:30:39;15.57;;;10.13;;
17259;SDS011;8746;49.230;9.220;2024-01-30T04:33:04;13.27;;;9.83;;
17259;SDS011;8746;49.230;9.220;2024-01-30T04:35:30;14.03;;;10.00;;
17259;SDS011;8746;49.230;9.220;2024-01-30T04:37:55;13.27;;;9.93;;
17259;SDS011;8746;49.230;9.220;2024-01-30T04:40:21;12.73;;;9.70;;
17259;SDS011;8746;49.230;9.220;2024-01-30T04:42:46;13.63;;;9.30;;
17259;SDS011;8746;49.230;9.220;2024-01-30T04:45:12;15.17;;;9.90;;
17259;SDS011;8746;49.230;9.220;2024-01-30T04:47:37;14.23;;;9.63;;
17259;SDS011;8746;49.230;9.220;2024-01-30T04:50:04;13.33;;;9.50;;
17259;SDS011;8746;49.230;9.220;2024-01-30T04:52:30;13.43;;;9.70;;
17259;SDS011;8746;49.230;9.220;2024-01-30T04:54:56;13.93;;;10.70;;
17259;SDS011;8746;49.230;9.220;2024-01-30T04:57:21;12.40;;;9.27;;
17259;SDS011;8746;49.230;9.220;2024-01-30T04:59:46;15.13;;;10.10;;
17259;SDS011;8746;49.230;9.220;2024-01-30T05:02:12;14.40;;;9.83;;
17259;SDS011;8746;49.230;9.220;2024-01-30T05:04:37;13.90;;;9.73;;
17259;SDS011;8746;49.230;9.220;2024-01-30T05:07:02;15.60;;;10.47;;
17259;SDS011;8746;49.230;9.220;2024-01-30T05:09:28;14.10;;;9.50;;
17259;SDS011;8746;49.230;9.220;2024-01-30T05:11:53;14.33;;;9.87;;
17259;SDS011;8746;49.230;9.220;2024-01-30T05:14:19;12.70;;;9.50;;
17259;SDS011;8746;49.230;9.220;2024-01-30T05:16:44;14.03;;;9.57;;
17259;SDS011;8746;49.230;9.220;2024-01-30T05:19:12;14.00;;;9.80;;
17259;SDS011;8746;49.230;9.220;2024-01-30T05:21:42;14.47;;;10.60;;
17259;SDS011;8746;49.230;9.220;2024-01-30T05:24:07;18.53;;;13.30;;
17259;SDS011;8746;49.230;9.220;2024-01-30T05:26:34;17.77;;;12.83;;
17259;SDS011;8746;49.230;9.220;2024-01-30T05:29:00;17.50;;;12.70;;
17259;SDS011;8746;49.230;9.220;2024-01-30T05:31:26;17.13;;;12.20;;
17259;SDS011;8746;49.230;9.220;2024-01-30T05:33:52;18.80;;;12.47;;
17259;SDS011;8746;49.230;9.220;2024-01-30T05:36:20;17.43;;;12.50;;
17259;SDS011;8746;49.230;9.220;2024-01-30T05:38:46;15.77;;;10.63;;
17259;SDS011;8746;49.230;9.220;2024-01-30T05:41:12;15.63;;;11.10;;
17259;SDS011;8746;49.230;9.220;2024-01-30T05:43:37;13.03;;;10.10;;
17259;SDS011;8746;49.230;9.220;2024-01-30T05:46:02;16.10;;;10.37;;
17259;SDS011;8746;49.230;9.220;2024-01-30T05:48:28;16.40;;;10.73;;
17259;SDS011;8746;49.230;9.220;2024-01-30T05:50:53;16.20;;;10.10;;
17259;SDS011;8746;49.230;9.220;2024-01-30T05:53:18;14.83;;;10.37;;
17259;SDS011;8746;49.230;9.220;2024-01-30T05:55:44;13.50;;;9.37;;
17259;SDS011;8746;49.230;9.220;2024-01-30T05:58:09;17.50;;;10.23;;
17259;SDS011;8746;49.230;9.220;2024-01-30T06:00:35;14.20;;;9.47;;
17259;SDS011;8746;49.230;9.220;2024-01-30T06:03:00;16.77;;;9.63;;
17259;SDS011;8746;49.230;9.220;2024-01-30T06:05:25;13.80;;;9.57;;
17259;SDS011;8746;49.230;9.220;2024-01-30T06:07:51;13.90;;;9.27;;
17259;SDS011;8746;49.230;9.220;2024-01-30T06:10:16;13.20;;;9.50;;
17259;SDS011;8746;49.230;9.220;2024-01-30T06:12:41;14.23;;;9.87;;
17259;SDS011;8746;49.230;9.220;2024-01-30T06:15:07;12.33;;;9.43;;
17259;SDS011;8746;49.230;9.220;2024-01-30T06:17:33;12.27;;;9.37;;
17259;SDS011;8746;49.230;9.220;2024-01-30T06:19:58;11.87;;;9.03;;
17259;SDS011;8746;49.230;9.220;2024-01-30T06:22:24;11.33;;;8.80;;
17259;SDS011;8746;49.230;9.220;2024-01-30T06:24:49;16.37;;;9.33;;
17259;SDS011;8746;49.230;9.220;2024-01-30T06:27:15;10.80;;;8.93;;
17259;SDS011;8746;49.230;9.220;2024-01-30T06:29:40;12.03;;;9.67;;
17259;SDS011;8746;49.230;9.220;2024-01-30T06:32:08;13.30;;;10.30;;
17259;SDS011;8746;49.230;9.220;2024-01-30T06:34:33;14.33;;;9.53;;
17259;SDS011;8746;49.230;9.220;2024-01-30T06:36:58;13.00;;;9.87;;
17259;SDS011;8746;49.230;9.220;2024-01-30T06:39:24;17.77;;;9.97;;
17259;SDS011;8746;49.230;9.220;2024-01-30T06:41:50;14.53;;;10.37;;
17259;SDS011;8746;49.230;9.220;2024-01-30T06:44:15;16.27;;;11.10;;
17259;SDS011;8746;49.230;9.220;2024-01-30T06:46:41;15.33;;;11.67;;
17259;SDS011;8746;49.230;9.220;2024-01-30T06:49:06;20.07;;;12.20;;
17259;SDS011;8746;49.230;9.220;2024-01-30T06:51:31;17.03;;;12.27;;
17259;SDS011;8746;49.230;9.220;2024-01-30T06:53:57;16.10;;;11.97;;
17259;SDS011;8746;49.230;9.220;2024-01-30T06:56:22;19.43;;;13.97;;
17259;SDS011;8746;49.230;9.220;2024-01-30T06:58:48;17.70;;;13.37;;
17259;SDS011;8746;49.230;9.220;2024-01-30T07:01:14;19.73;;;12.40;;
17259;SDS011;8746;49.230;9.220;2024-01-30T07:03:39;16.93;;;11.20;;
17259;SDS011;8746;49.230;9.220;2024-01-30T07:06:05;15.77;;;10.83;;
17259;SDS011;8746;49.230;9.220;2024-01-30T07:08:30;16.37;;;10.30;;
17259;SDS011;8746;49.230;9.220;2024-01-30T07:10:56;13.73;;;10.43;;
17259;SDS011;8746;49.230;9.220;2024-01-30T07:13:21;14.87;;;9.93;;
17259;SDS011;8746;49.230;9.220;2024-01-30T07:15:46;17.13;;;11.23;;
17259;SDS011;8746;49.230;9.220;2024-01-30T07:18:12;20.00;;;10.60;;
17259;SDS011;8746;49.230;9.220;2024-01-30T07:20:39;15.30;;;10.27;;
17259;SDS011;8746;49.230;9.220;2024-01-30T07:23:22;15.00;;;10.43;;
17259;SDS011;8746;49.230;9.220;2024-01-30T07:25:47;14.10;;;10.83;;
17259;SDS011;8746;49.230;9.220;2024-01-30T07:28:15;14.57;;;10.60;;
17259;SDS011;8746;49.230;9.220;2024-01-30T07:30:42;15.87;;;10.70;;
17259;SDS011;8746;49.230;9.220;2024-01-30T07:33:08;15.23;;;10.60;;
17259;SDS011;8746;49.230;9.220;2024-01-30T07:35:33;14.07;;;11.47;;
17259;SDS011;8746;49.230;9.220;2024-01-30T07:37:59;16.60;;;12.57;;
17259;SDS011;8746;49.230;9.220;2024-01-30T07:40:24;15.30;;;12.83;;
17259;SDS011;8746;49.230;9.220;2024-01-30T07:42:50;18.33;;;13.77;;
17259;SDS011;8746;49.230;9.220;2024-01-30T07:45:15;16.57;;;13.07;;
17259;SDS011;8746;49.230;9.220;2024-01-30T07:47:41;18.03;;;12.30;;
17259;SDS011;8746;49.230;9.220;2024-01-30T07:50:07;17.73;;;12.33;;
17259;SDS011;8746;49.230;9.220;2024-01-30T07:52:33;20.57;;;12.23;;
17259;SDS011;8746;49.230;9.220;2024-01-30T07:54:58;17.67;;;11.67;;
17259;SDS011;8746;49.230;9.220;2024-01-30T07:57:24;15.23;;;12.17;;
17259;SDS011;8746;49.230;9.220;2024-01-30T07:59:49;18.80;;;12.37;;
17259;SDS011;8746;49.230;9.220;2024-01-30T08:02:15;20.70;;;13.40;;
17259;SDS011;8746;49.230;9.220;2024-01-30T08:04:40;17.73;;;13.60;;
17259;SDS011;8746;49.230;9.220;2024-01-30T08:07:06;16.60;;;13.90;;
17259;SDS011;8746;49.230;9.220;2024-01-30T08:09:31;20.30;;;13.97;;
17259;SDS011;8746;49.230;9.220;2024-01-30T08:11:56;21.73;;;14.03;;
17259;SDS011;8746;49.230;9.220;2024-01-30T08:14:22;18.27;;;14.40;;
17259;SDS011;8746;49.230;9.220;2024-01-30T08:16:47;20.47;;;13.90;;
17259;SDS011;8746;49.230;9.220;2024-01-30T08:19:13;16.57;;;14.43;;
17259;SDS011;8746;49.230;9.220;2024-01-30T08:21:40;19.53;;;15.30;;
17259;SDS011;8746;49.230;9.220;2024-01-30T08:24:05;21.13;;;15.23;;
17259;SDS011;8746;49.230;9.220;2024-01-30T08:26:31;19.90;;;15.23;;
17259;SDS011;8746;49.230;9.220;2024-01-30T08:28:57;17.67;;;15.13;;
17259;SDS011;8746;49.230;9.220;2024-01-30T08:31:23;18.57;;;15.70;;
17259;SDS011;8746;49.230;9.220;2024-01-30T08:33:48;19.83;;;15.50;;
17259;SDS011;8746;49.230;9.220;2024-01-30T08:36:14;20.57;;;15.83;;
17259;SDS011;8746;49.230;9.220;2024-01-30T08:38:40;21.63;;;14.80;;
17259;SDS011;8746;49.230;9.220;2024-01-30T08:41:05;21.17;;;15.27;;
17259;SDS011;8746;49.230;9.220;2024-01-30T08:43:32;21.33;;;14.57;;
17259;SDS011;8746;49.230;9.220;2024-01-30T08:46:00;17.60;;;14.57;;
17259;SDS011;8746;49.230;9.220;2024-01-30T08:48:26;20.70;;;14.60;;
17259;SDS011;8746;49.230;9.220;2024-01-30T08:50:52;19.47;;;14.73;;
17259;SDS011;8746;49.230;9.220;2024-01-30T08:53:18;22.37;;;13.73;;
17259;SDS011;8746;49.230;9.220;2024-01-30T08:55:43;15.23;;;11.97;;
17259;SDS011;8746;49.230;9.220;2024-01-30T08:58:09;19.67;;;13.90;;
17259;SDS011;8746;49.230;9.220;2024-01-30T09:00:35;20.20;;;13.87;;
17259;SDS011;8746;49.230;9.220;2024-01-30T09:03:00;18.30;;;13.30;;
17259;SDS011;8746;49.230;9.220;2024-01-30T09:05:25;15.53;;;13.03;;
17259;SDS011;8746;49.230;9.220;2024-01-30T09:07:51;20.67;;;14.77;;
17259;SDS011;8746;49.230;9.220;2024-01-30T09:10:16;20.37;;;14.53;;
17259;SDS011;8746;49.230;9.220;2024-01-30T09:12:41;18.73;;;13.90;;
17259;SDS011;8746;49.230;9.220;2024-01-30T09:15:07;17.33;;;13.90;;
17259;SDS011;8746;49.230;9.220;2024-01-30T09:17:32;17.93;;;13.73;;
17259;SDS011;8746;49.230;9.220;2024-01-30T09:19:58;16.57;;;13.33;;
17259;SDS011;8746;49.230;9.220;2024-01-30T09:22:24;16.63;;;12.83;;
17259;SDS011;8746;49.230;9.220;2024-01-30T09:24:49;17.63;;;12.40;;
17259;SDS011;8746;49.230;9.220;2024-01-30T09:27:15;16.77;;;13.73;;
17259;SDS011;8746;49.230;9.220;2024-01-30T09:29:40;20.00;;;13.77;;
17259;SDS011;8746;49.230;9.220;2024-01-30T09:32:06;18.23;;;14.73;;
17259;SDS011;8746;49.230;9.220;2024-01-30T09:34:31;17.87;;;13.90;;
17259;SDS011;8746;49.230;9.220;2024-01-30T09:36:58;19.20;;;14.83;;
17259;SDS011;8746;49.230;9.220;2024-01-30T09:39:25;18.07;;;14.67;;
17259;SDS011;8746;49.230;9.220;2024-01-30T09:44:43;18.80;;;13.60;;
17259;SDS011;8746;49.230;9.220;2024-01-30T09:47:09;19.07;;;12.83;;
17259;SDS011;8746;49.230;9.220;2024-01-30T09:49:35;17.53;;;11.40;;
17259;SDS011;8746;49.230;9.220;2024-01-30T09:52:02;17.17;;;12.40;;
17259;SDS011;8746;49.230;9.220;2024-01-30T09:54:31;17.77;;;11.70;;
17259;SDS011;8746;49.230;9.220;2024-01-30T09:56:57;15.50;;;11.63;;
17259;SDS011;8746;49.230;9.220;2024-01-30T09:59:23;15.93;;;11.57;;
17259;SDS011;8746;49.230;9.220;2024-01-30T10:01:49;15.27;;;12.83;;
17259;SDS011;8746;49.230;9.220;2024-01-30T10:04:16;16.23;;;12.90;;
17259;SDS011;8746;49.230;9.220;2024-01-30T10:06:41;14.47;;;12.30;;
17259;SDS011;8746;49.230;9.220;2024-01-30T10:09:07;20.70;;;13.07;;
17259;SDS011;8746;49.230;9.220;2024-01-30T10:11:33;15.13;;;11.50;;
17259;SDS011;8746;49.230;9.220;2024-01-30T10:13:59;16.03;;;11.90;;
17259;SDS011;8746;49.230;9.220;2024-01-30T10:16:25;12.43;;;11.13;;
17259;SDS011;8746;49.230;9.220;2024-01-30T10:18:50;14.87;;;11.77;;
17259;SDS011;8746;49.230;9.220;2024-01-30T10:21:16;14.60;;;10.73;;
17259;SDS011;8746;49.230;9.220;2024-01-30T10:23:43;11.87;;;10.37;;
17259;SDS011;8746;49.230;9.220;2024-01-30T10:26:09;14.43;;;10.87;;
17259;SDS011;8746;49.230;9.220;2024-01-30T10:28:34;15.40;;;12.50;;
17259;SDS011;8746;49.230;9.220;2024-01-30T10:30:59;14.27;;;12.10;;
17259;SDS011;8746;49.230;9.220;2024-01-30T10:33:26;15.00;;;11.93;;
17259;SDS011;8746;49.230;9.220;2024-01-30T10:35:54;14.23;;;11.57;;
17259;SDS011;8746;49.230;9.220;2024-01-30T10:38:24;15.07;;;11.93;;
17259;SDS011;8746;49.230;9.220;2024-01-30T10:40:53;16.37;;;12.10;;
17259;SDS011;8746;49.230;9.220;2024-01-30T10:43:21;13.83;;;12.07;;
17259;SDS011;8746;49.230;9.220;2024-01-30T10:45:49;15.27;;;12.17;;
17259;SDS011;8746;49.230;9.220;2024-01-30T10:48:17;13.60;;;11.53;;
17259;SDS011;8746;49.230;9.220;2024-01-30T10:50:48;12.90;;;11.43;;
17259;SDS011;8746;49.230;9.220;2024-01-30T10:53:15;13.47;;;11.60;;
17259;SDS011;8746;49.230;9.220;2024-01-30T10:55:43;13.43;;;10.93;;
17259;SDS011;8746;49.230;9.220;2024-01-30T10:58:09;13.80;;;11.00;;
17259;SDS011;8746;49.230;9.220;2024-01-30T11:00:36;14.60;;;11.67;;
17259;SDS011;8746;49.230;9.220;2024-01-30T11:03:02;12.67;;;11.23;;
17259;SDS011;8746;49.230;9.220;2024-01-30T11:05:28;13.77;;;11.30;;
17259;SDS011;8746;49.230;9.220;2024-01-30T11:07:54;12.83;;;11.40;;
17259;SDS011;8746;49.230;9.220;2024-01-30T11:10:19;15.10;;;11.53;;
17259;SDS011;8746;49.230;9.220;2024-01-30T11:12:45;16.17;;;10.77;;
17259;SDS011;8746;49.230;9.220;2024-01-30T11:15:15;14.53;;;11.00;;
17259;SDS011;8746;49.230;9.220;2024-01-30T11:17:51;15.87;;;11.57;;
17259;SDS011;8746;49.230;9.220;2024-01-30T11:20:21;12.53;;;11.23;;
17259;SDS011;8746;49.230;9.220;2024-01-30T11:22:46;12.47;;;10.97;;
17259;SDS011;8746;49.230;9.220;2024-01-30T11:25:13;13.40;;;10.50;;
17259;SDS011;8746;49.230;9.220;2024-01-30T11:27:40;13.07;;;10.60;;
17259;SDS011;8746;49.230;9.220;2024-01-30T11:30:06;18.80;;;13.27;;
17259;SDS011;8746;49.230;9.220;2024-01-30T11:32:33;14.60;;;10.93;;
17259;SDS011;8746;49.230;9.220;2024-01-30T11:34:58;16.30;;;12.00;;
17259;SDS011;8746;49.230;9.220;2024-01-30T11:37:24;13.73;;;11.63;;
17259;SDS011;8746;49.230;9.220;2024-01-30T11:39:51;12.53;;;11.23;;
17259;SDS011;8746;49.230;9.220;2024-01-30T11:42:17;16.60;;;12.60;;
17259;SDS011;8746;49.230;9.220;2024-01-30T11:44:49;16.13;;;13.27;;
17259;SDS011;8746;49.230;9.220;2024-01-30T11:47:14;17.07;;;13.40;;
17259;SDS011;8746;49.230;9.220;2024-01-30T11:49:41;17.13;;;13.43;;
17259;SDS011;8746;49.230;9.220;2024-01-30T11:52:06;17.63;;;13.17;;
17259;SDS011;8746;49.230;9.220;2024-01-30T11:54:32;15.53;;;12.93;;
17259;SDS011;8746;49.230;9.220;2024-01-30T11:56:57;14.50;;;12.60;;
17259;SDS011;8746;49.230;9.220;2024-01-30T11:59:24;16.63;;;11.73;;
17259;SDS011;8746;49.230;9.220;2024-01-30T12:01:51;12.77;;;10.77;;
17259;SDS011;8746;49.230;9.220;2024-01-30T12:04:17;14.73;;;11.23;;
17259;SDS011;8746;49.230;9.220;2024-01-30T12:06:43;13.20;;;11.70;;
17259;SDS011;8746;49.230;9.220;2024-01-30T12:09:08;13.43;;;12.03;;
17259;SDS011;8746;49.230;9.220;2024-01-30T12:11:45;14.60;;;11.63;;
17259;SDS011;8746;49.230;9.220;2024-01-30T12:14:11;12.77;;;11.37;;
17259;SDS011;8746;49.230;9.220;2024-01-30T12:16:37;11.53;;;10.27;;
17259;SDS011;8746;49.230;9.220;2024-01-30T12:19:03;11.00;;;9.40;;
17259;SDS011;8746;49.230;9.220;2024-01-30T12:21:29;11.93;;;9.90;;
17259;SDS011;8746;49.230;9.220;2024-01-30T12:23:54;11.87;;;10.30;;
17259;SDS011;8746;49.230;9.220;2024-01-30T12:26:21;15.03;;;9.87;;
17259;SDS011;8746;49.230;9.220;2024-01-30T12:28:49;10.47;;;9.43;;
17259;SDS011;8746;49.230;9.220;2024-01-30T12:31:15;12.47;;;10.50;;
17259;SDS011;8746;49.230;9.220;2024-01-30T12:33:40;12.37;;;9.73;;
17259;SDS011;8746;49.230;9.220;2024-01-30T12:36:06;13.03;;;9.63;;
17259;SDS011;8746;49.230;9.220;2024-01-30T12:38:32;10.80;;;9.20;;
17259;SDS011;8746;49.230;9.220;2024-01-30T12:40:57;12.30;;;11.00;;
17259;SDS011;8746;49.230;9.220;2024-01-30T12:43:25;14.93;;;11.87;;
17259;SDS011;8746;49.230;9.220;2024-01-30T12:45:54;13.83;;;11.13;;
17259;SDS011;8746;49.230;9.220;2024-01-30T12:48:19;12.37;;;10.30;;
17259;SDS011;8746;49.230;9.220;2024-01-30T12:50:44;11.97;;;10.77;;
17259;SDS011;8746;49.230;9.220;2024-01-30T12:53:10;11.70;;;10.57;;
17259;SDS011;8746;49.230;9.220;2024-01-30T12:55:35;12.20;;;10.87;;
17259;SDS011;8746;49.230;9.220;2024-01-30T12:58:00;11.47;;;9.67;;
17259;SDS011;8746;49.230;9.220;2024-01-30T13:00:26;12.63;;;9.93;;
17259;SDS011;8746;49.230;9.220;2024-01-30T13:02:51;11.73;;;10.20;;
17259;SDS011;8746;49.230;9.220;2024-01-30T13:05:17;11.77;;;10.57;;
17259;SDS011;8746;49.230;9.220;2024-01-30T13:07:42;13.03;;;10.13;;
17259;SDS011;8746;49.230;9.220;2024-01-30T13:10:08;13.03;;;10.53;;
17259;SDS011;8746;49.230;9.220;2024-01-30T13:12:33;11.80;;;10.53;;
17259;SDS011;8746;49.230;9.220;2024-01-30T13:14:59;11.57;;;10.17;;
17259;SDS011;8746;49.230;9.220;2024-01-30T13:17:28;12.23;;;9.43;;
17259;SDS011;8746;49.230;9.220;2024-01-30T13:19:54;11.83;;;9.30;;
17259;SDS011;8746;49.230;9.220;2024-01-30T13:22:20;11.07;;;9.97;;
17259;SDS011;8746;49.230;9.220;2024-01-30T13:24:49;11.10;;;9.27;;
17259;SDS011;8746;49.230;9.220;2024-01-30T13:27:15;10.93;;;9.83;;
17259;SDS011;8746;49.230;9.220;2024-01-30T13:29:40;11.87;;;10.23;;
17259;SDS011;8746;49.230;9.220;2024-01-30T13:32:06;11.73;;;9.80;;
17259;SDS011;8746;49.230;9.220;2024-01-30T13:34:31;11.33;;;9.93;;
17259;SDS011;8746;49.230;9.220;2024-01-30T13:36:57;11.10;;;9.43;;
17259;SDS011;8746;49.230;9.220;2024-01-30T13:39:22;12.43;;;10.50;;
17259;SDS011;8746;49.230;9.220;2024-01-30T13:41:48;11.37;;;9.83;;
17259;SDS011;8746;49.230;9.220;2024-01-30T13:44:13;12.73;;;10.43;;
17259;SDS011;8746;49.230;9.220;2024-01-30T13:46:41;13.80;;;10.57;;
17259;SDS011;8746;49.230;9.220;2024-01-30T13:49:06;15.07;;;11.20;;
17259;SDS011;8746;49.230;9.220;2024-01-30T13:51:32;11.63;;;10.27;;
17259;SDS011;8746;49.230;9.220;2024-01-30T13:53:57;16.00;;;11.27;;
17259;SDS011;8746;49.230;9.220;2024-01-30T13:56:23;14.60;;;11.57;;
17259;SDS011;8746;49.230;9.220;2024-01-30T13:58:48;14.10;;;11.43;;
17259;SDS011;8746;49.230;9.220;2024-01-30T14:01:15;15.03;;;12.17;;
17259;SDS011;8746;49.230;9.220;2024-01-30T14:03:40;14.00;;;11.60;;
17259;SDS011;8746;49.230;9.220;2024-01-30T14:06:06;13.83;;;12.07;;
17259;SDS011;8746;49.230;9.220;2024-01-30T14:08:31;15.57;;;12.23;;
17259;SDS011;8746;49.230;9.220;2024-01-30T14:10:57;17.47;;;13.20;;
17259;SDS011;8746;49.230;9.220;2024-01-30T14:13:23;16.47;;;13.40;;
17259;SDS011;8746;49.230;9.220;2024-01-30T14:15:50;17.00;;;12.47;;
17259;SDS011;8746;49.230;9.220;2024-01-30T14:18:15;16.00;;;12.50;;
17259;SDS011;8746;49.230;9.220;2024-01-30T14:20:41;16.57;;;11.77;;
17259;SDS011;8746;49.230;9.220;2024-01-30T14:23:07;17.33;;;11.70;;
17259;SDS011;8746;49.230;9.220;2024-01-30T14:25:32;13.77;;;11.77;;
17259;SDS011;8746;49.230;9.220;2024-01-30T14:27:58;16.93;;;12.23;;
17259;SDS011;8746;49.230;9.220;2024-01-30T14:30:23;14.30;;;12.00;;
17259;SDS011;8746;49.230;9.220;2024-01-30T14:32:48;14.67;;;11.93;;